createdAt,value
2022-08-19T00:02:06.574Z,80.2
2022-08-19T00:12:06.592Z,80.7
2022-08-19T00:22:06.584Z,80.6
2022-08-19T00:27:25.604Z,81.3
2022-08-19T00:32:06.600Z,82.8
2022-08-19T00:37:06.590Z,83.9
2022-08-19T00:42:06.603Z,82.4
2022-08-19T00:47:06.596Z,80.0
2022-08-19T00:52:06.601Z,81.2
2022-08-19T00:57:06.608Z,81.4
2022-08-19T01:02:06.613Z,83.3
2022-08-19T01:17:06.836Z,87.5
2022-08-19T01:27:06.734Z,85.9
2022-08-19T01:32:06.721Z,82.9
2022-08-19T01:42:06.800Z,84.0
2022-08-19T01:47:06.882Z,81.1
2022-08-19T01:52:06.845Z,81.1
2022-08-19T02:02:07.135Z,82.7
2022-08-19T02:12:06.705Z,84.4
2022-08-19T02:22:06.644Z,80.9
2022-08-19T02:27:06.741Z,82.1
2022-08-19T02:37:06.897Z,80.2
2022-08-19T02:42:06.761Z,83.8
2022-08-19T02:47:06.873Z,87.0
2022-08-19T02:52:06.843Z,86.9
2022-08-19T02:57:07.163Z,82.8
2022-08-19T03:02:06.820Z,85.7
2022-08-19T03:12:06.905Z,84.4
2022-08-19T03:17:06.840Z,83.3
2022-08-19T03:22:06.899Z,84.2
2022-08-19T03:32:06.684Z,85.6
2022-08-19T03:37:06.684Z,86.2
2022-08-19T03:42:47.753Z,84.6
2022-08-19T03:47:06.669Z,82.9
2022-08-19T03:52:06.891Z,85.1
2022-08-19T04:02:06.860Z,85.9
2022-08-19T04:12:06.914Z,86.2
2022-08-19T04:17:06.871Z,86.2
2022-08-19T04:42:06.927Z,84.8
2022-08-19T04:47:10.969Z,83.7
2022-08-19T04:57:06.868Z,85.3
2022-08-19T05:02:06.917Z,84.3
2022-08-19T05:07:06.930Z,83.1
2022-08-19T05:12:06.835Z,81.9
2022-08-19T05:17:26.501Z,83.9
2022-08-19T05:22:07.314Z,83.8
2022-08-19T05:27:06.909Z,82.9
2022-08-19T05:32:06.755Z,81.2
2022-08-19T05:37:06.966Z,86.0
2022-08-19T05:42:06.802Z,86.5
2022-08-19T05:57:06.965Z,91.2
2022-08-19T06:02:06.848Z,91.6
2022-08-19T06:07:12.098Z,93.9
2022-08-19T06:12:06.839Z,94.3
2022-08-19T06:17:07.606Z,94.9
2022-08-19T06:22:06.854Z,95.8
2022-08-19T06:27:06.930Z,97.8
2022-08-19T06:32:06.973Z,99.7
2022-08-19T06:37:06.894Z,99.6
2022-08-19T06:42:06.930Z,97.6
2022-08-19T06:47:14.365Z,96.6
2022-08-19T06:52:06.851Z,96.7
2022-08-19T06:57:06.829Z,93.9
2022-08-19T07:02:06.994Z,91.3
2022-08-19T07:07:19.575Z,91.3
2022-08-19T07:17:06.946Z,85.8
2022-08-19T07:22:06.922Z,87.6
2022-08-19T07:27:11.673Z,87.8
2022-08-19T07:32:06.868Z,87.8
2022-08-19T07:37:07.019Z,87.3
2022-08-19T07:42:07.017Z,85.5
2022-08-19T07:52:06.972Z,81.5
2022-08-19T07:57:06.809Z,81.5
2022-08-19T08:02:06.997Z,81.7
2022-08-19T08:07:06.908Z,81.1
2022-08-19T08:12:32.788Z,78.3
2022-08-19T08:17:10.962Z,76.4
2022-08-19T08:22:06.922Z,75.2
2022-08-19T08:27:11.093Z,75.2
2022-08-19T08:32:14.102Z,71.0
2022-08-19T08:37:06.972Z,71.1
2022-08-19T08:47:07.918Z,69.1
2022-08-19T08:52:06.904Z,68.6
2022-08-19T08:57:07.047Z,66.4
2022-08-19T09:02:06.880Z,65.2
2022-08-19T09:07:17.968Z,64.3
2022-08-19T09:17:07.017Z,61.4
2022-08-19T09:22:07.020Z,61.0
2022-08-19T09:27:08.408Z,56.4
2022-08-19T09:37:07.053Z,57.2
2022-08-19T09:42:16.168Z,54.5
2022-08-19T09:47:07.009Z,54.4
2022-08-19T09:52:07.052Z,55.4
2022-08-19T09:57:06.991Z,55.5
2022-08-19T10:07:07.086Z,59.4
2022-08-19T10:12:07.038Z,59.4
2022-08-19T10:17:17.969Z,56.6
2022-08-19T10:22:06.890Z,55.2
2022-08-19T10:27:07.040Z,53.5
2022-08-19T10:32:09.505Z,53.3
2022-08-19T10:37:10.731Z,53.2
2022-08-19T10:42:07.034Z,55.1
2022-08-19T10:57:06.839Z,49.5
2022-08-19T11:02:07.042Z,49.0
2022-08-19T11:07:06.862Z,44.9
2022-08-19T11:12:06.854Z,48.0
2022-08-19T11:17:07.001Z,48.7
2022-08-19T11:22:07.127Z,48.6
2022-08-19T11:27:06.885Z,47.9
2022-08-19T11:32:07.038Z,45.4
2022-08-19T11:37:06.865Z,45.4
2022-08-19T11:42:06.856Z,46.3
2022-08-19T11:47:09.093Z,46.0
2022-08-19T11:52:07.084Z,46.5
2022-08-19T11:57:07.102Z,46.6
2022-08-19T12:02:07.038Z,46.6
2022-08-19T12:07:06.951Z,48.6
2022-08-19T12:17:07.122Z,48.8
2022-08-19T12:22:07.081Z,46.5
2022-08-19T12:27:08.889Z,45.7
2022-08-19T12:32:07.133Z,45.3
2022-08-19T12:37:07.129Z,47.4
2022-08-19T12:42:07.124Z,47.0
2022-08-19T12:47:07.121Z,44.2
2022-08-19T12:52:07.092Z,45.4
2022-08-19T12:57:07.132Z,44.7
2022-08-19T13:02:07.075Z,44.6
2022-08-19T13:07:07.088Z,43.8
2022-08-19T13:12:07.089Z,44.3
2022-08-19T13:22:13.105Z,44.6
2022-08-19T13:27:07.035Z,44.1
2022-08-19T13:32:06.913Z,46.6
2022-08-19T13:37:07.020Z,44.7
2022-08-19T13:42:07.151Z,44.7
2022-08-19T13:47:07.127Z,44.5
2022-08-19T13:52:06.988Z,43.8
2022-08-19T13:57:07.122Z,42.6
2022-08-19T14:02:07.028Z,42.2
2022-08-19T14:07:07.114Z,43.6
2022-08-19T14:12:06.939Z,43.3
2022-08-19T14:17:07.113Z,43.7
2022-08-19T14:22:06.972Z,43.5
2022-08-19T14:27:07.066Z,46.5
2022-08-19T14:32:07.168Z,49.5
2022-08-19T14:37:07.179Z,50.0
2022-08-19T14:42:10.643Z,47.6
2022-08-19T14:47:06.957Z,50.1
2022-08-19T14:52:06.966Z,53.9
2022-08-19T14:57:06.964Z,54.0
2022-08-19T15:02:34.246Z,56.3
2022-08-19T15:07:06.983Z,55.6
2022-08-19T15:12:06.977Z,55.7
2022-08-19T15:17:06.965Z,56.0
2022-08-19T15:22:06.964Z,56.7
2022-08-19T15:27:06.967Z,57.0
2022-08-19T15:32:06.973Z,57.0
2022-08-19T15:37:06.984Z,57.4
2022-08-19T15:42:06.974Z,58.0
2022-08-19T15:47:06.984Z,58.6
2022-08-19T15:52:06.992Z,60.8
2022-08-19T15:57:06.976Z,61.6
2022-08-19T16:07:06.974Z,63.4
2022-08-19T16:12:06.987Z,63.4
2022-08-19T16:17:06.995Z,63.6
2022-08-19T16:22:07.007Z,62.9
2022-08-19T16:27:07.033Z,63.6
2022-08-19T16:32:06.997Z,63.6
2022-08-19T16:42:07.351Z,64.4
2022-08-19T16:52:07.025Z,64.2
2022-08-19T16:57:07.014Z,64.2
2022-08-19T17:02:07.013Z,63.4
2022-08-19T17:07:07.023Z,64.9
2022-08-19T17:12:07.000Z,64.7
2022-08-19T17:27:07.022Z,65.8
2022-08-19T17:32:07.027Z,67.0
2022-08-19T17:37:07.022Z,66.7
2022-08-19T17:42:07.034Z,66.9
2022-08-19T17:47:07.575Z,65.9
2022-08-19T17:52:09.939Z,65.9
2022-08-19T18:02:07.127Z,66.9
2022-08-19T18:07:07.047Z,67.3
2022-08-19T18:12:07.043Z,66.8
2022-08-19T18:17:07.048Z,67.8
2022-08-19T18:22:07.047Z,68.7
2022-08-19T18:32:07.043Z,68.9
2022-08-19T18:37:07.053Z,69.5
2022-08-19T18:42:07.055Z,70.7
2022-08-19T18:47:07.068Z,74.0
2022-08-19T18:57:07.074Z,73.4
2022-08-19T19:02:07.054Z,72.5
2022-08-19T19:12:07.053Z,73.7
2022-08-19T19:17:07.076Z,74.3
2022-08-19T19:22:07.074Z,75.3
2022-08-19T19:27:07.120Z,76.5
2022-08-19T19:37:07.087Z,77.3
2022-08-19T19:52:07.096Z,79.5
2022-08-19T20:02:07.097Z,81.9
2022-08-19T20:07:07.098Z,82.2
2022-08-19T20:12:07.099Z,82.7
2022-08-19T20:32:07.101Z,81.0
2022-08-19T20:42:07.111Z,82.6
2022-08-19T20:52:07.102Z,83.3
2022-08-19T20:57:07.115Z,83.6
2022-08-19T21:07:07.413Z,84.2
2022-08-19T21:12:07.103Z,84.2
2022-08-19T21:22:07.142Z,85.3
2022-08-19T21:27:07.127Z,84.9
2022-08-19T21:32:07.248Z,85.2
2022-08-19T21:37:07.138Z,85.8
2022-08-19T21:42:07.375Z,84.5
2022-08-19T21:57:10.498Z,83.1
2022-08-19T22:02:19.562Z,82.5
2022-08-19T22:07:07.150Z,82.6
2022-08-19T22:12:07.132Z,82.5
2022-08-19T22:22:07.155Z,82.1
2022-08-19T23:02:07.154Z,82.1
2022-08-19T23:07:07.169Z,83.0
2022-08-19T23:22:07.175Z,82.2
2022-08-19T23:37:07.178Z,82.2
2022-08-19T23:57:14.260Z,82.9
